LGSA/CHQ METAR and TAF weather

Enter ICAO airport designator
Station Type Date Time Source
LGSA METAR 2019/10/15 19:20 UTC NOAA

LGSA 151920Z 00000KT 9999 FEW016 19/18 Q1016


Station Type Date Time Source
LGSA Decoded METAR 2019/10/15 19:20 UTC NOAA

Souda Airport , Greece (LGSA) 35-29N 024-07E 151M
Oct 15, 2019 - 03:20 PM EDT / 2019.10.15 1920 UTC
Wind: Calm:0
Visibility: greater than 7 mile(s):0
Sky conditions: mostly clear
Temperature: 66 F (19 C)
Dew Point: 64 F (18 C)
Relative Humidity: 93%
Pressure (altimeter): 30.00 in. Hg (1016 hPa)
ob: LGSA 151920Z 00000KT 9999 FEW016 19/18 Q1016
cycle: 19

Station Type Date Time Source
LGSA TAF 2019/10/15 18:12 UTC NOAA

TAF LGSA 151700Z 1518/1618 VRB05KT 9999 FEW015 PROB30 1522/1606 4000 BR SCT006

Example: see airport list